Echelon, New Jersey
Current Conditions -  °F | °C
As of 12:54 PM on Thursday 27 Nov 2014 (Local Time) from KVAY Reporting Station
Overcast Overcast  
Wind Chill: 34°   Ceiling: 2300
Heat Index: 39°   Visibility: 10mi
Dew Point: 30°   Wind: 7mph
Humidity: 70%   Direction: 290°WNW
Pressure: 30.01"   Gusts: NA
Location:  39.8445°N, 74.9532°W
Report Text: KVAY 271754Z AUTO 29006KT 10SM OVC023 04/M01 A3001 RMK AO2 SLP161 T00391011 10039 20017 58009
Loading
Personal Weather Stations






























Interactive Weather Map New forecast layout! Learn more

10-Day Weather Forecast

Advertisements
Track Severe Weather on mobile